Darrington, Mississippi
Current Conditions -  °F | °C
As of 2:35 AM on Saturday 01 Nov 2014 (Local Time) from KHEZ Reporting Station
Clear Clear  
Wind Chill:   Ceiling: Unl
Heat Index:   Visibility: 10mi
Dew Point: -3°   Wind: 9mph
Humidity: 53%   Direction: 10°N
Pressure: 30.3"   Gusts: NA
Location:  31.312°N, 90.9827°W
Report Text: KHEZ 010735Z AUTO 01008KT 10SM CLR 06/M03 A3030 RMK AO1
Loading
Personal Weather Stations






























Interactive Weather Map
Tropical Storm Tracking
New forecast layout! Learn more

10-Day Weather Forecast

Advertisements
Track Severe Weather on mobile